sensor_id;sensor_type;location;lat;lon;timestamp;P1;durP1;ratioP1;P2;durP2;ratioP2
81242;SDS011;70716;50.074;14.496;2023-08-24T00:00:47;5.60;;;2.90;;
81242;SDS011;70716;50.074;14.496;2023-08-24T00:03:12;7.75;;;3.45;;
81242;SDS011;70716;50.074;14.496;2023-08-24T00:05:38;7.75;;;3.25;;
81242;SDS011;70716;50.074;14.496;2023-08-24T00:08:04;6.40;;;3.30;;
81242;SDS011;70716;50.074;14.496;2023-08-24T00:10:30;6.95;;;2.95;;
81242;SDS011;70716;50.074;14.496;2023-08-24T00:12:55;5.70;;;3.15;;
81242;SDS011;70716;50.074;14.496;2023-08-24T00:15:21;6.13;;;2.92;;
81242;SDS011;70716;50.074;14.496;2023-08-24T00:17:46;5.70;;;3.28;;
81242;SDS011;70716;50.074;14.496;2023-08-24T00:20:11;6.22;;;3.50;;
81242;SDS011;70716;50.074;14.496;2023-08-24T00:22:38;6.78;;;3.40;;
81242;SDS011;70716;50.074;14.496;2023-08-24T00:25:04;5.45;;;3.25;;
81242;SDS011;70716;50.074;14.496;2023-08-24T00:27:30;5.80;;;3.60;;
81242;SDS011;70716;50.074;14.496;2023-08-24T00:29:59;6.85;;;3.00;;
81242;SDS011;70716;50.074;14.496;2023-08-24T00:32:24;6.95;;;3.88;;
81242;SDS011;70716;50.074;14.496;2023-08-24T00:34:50;6.00;;;3.60;;
81242;SDS011;70716;50.074;14.496;2023-08-24T00:37:15;6.22;;;3.03;;
81242;SDS011;70716;50.074;14.496;2023-08-24T00:39:40;6.05;;;3.22;;
81242;SDS011;70716;50.074;14.496;2023-08-24T00:42:06;6.30;;;3.20;;
81242;SDS011;70716;50.074;14.496;2023-08-24T00:44:31;7.15;;;3.50;;
81242;SDS011;70716;50.074;14.496;2023-08-24T00:46:57;6.90;;;3.33;;
81242;SDS011;70716;50.074;14.496;2023-08-24T00:51:52;6.03;;;3.40;;
81242;SDS011;70716;50.074;14.496;2023-08-24T00:54:18;6.10;;;3.50;;
81242;SDS011;70716;50.074;14.496;2023-08-24T00:56:43;6.72;;;3.50;;
81242;SDS011;70716;50.074;14.496;2023-08-24T00:59:09;6.35;;;3.45;;
81242;SDS011;70716;50.074;14.496;2023-08-24T01:01:35;7.00;;;3.85;;
81242;SDS011;70716;50.074;14.496;2023-08-24T01:04:03;6.28;;;3.55;;
81242;SDS011;70716;50.074;14.496;2023-08-24T01:06:30;7.90;;;3.50;;
81242;SDS011;70716;50.074;14.496;2023-08-24T01:08:58;6.45;;;3.72;;
81242;SDS011;70716;50.074;14.496;2023-08-24T01:11:32;7.57;;;4.43;;
81242;SDS011;70716;50.074;14.496;2023-08-24T01:14:17;5.60;;;3.20;;
81242;SDS011;70716;50.074;14.496;2023-08-24T01:16:49;6.60;;;3.42;;
81242;SDS011;70716;50.074;14.496;2023-08-24T01:19:22;6.35;;;3.60;;
81242;SDS011;70716;50.074;14.496;2023-08-24T01:21:59;7.07;;;3.92;;
81242;SDS011;70716;50.074;14.496;2023-08-24T01:24:31;6.85;;;3.78;;
81242;SDS011;70716;50.074;14.496;2023-08-24T01:27:03;6.90;;;3.80;;
81242;SDS011;70716;50.074;14.496;2023-08-24T01:29:29;6.68;;;3.42;;
81242;SDS011;70716;50.074;14.496;2023-08-24T01:31:57;7.00;;;3.78;;
81242;SDS011;70716;50.074;14.496;2023-08-24T01:34:22;7.45;;;3.72;;
81242;SDS011;70716;50.074;14.496;2023-08-24T01:36:48;7.28;;;4.28;;
81242;SDS011;70716;50.074;14.496;2023-08-24T01:39:17;7.07;;;3.85;;
81242;SDS011;70716;50.074;14.496;2023-08-24T01:41:52;6.95;;;4.07;;
81242;SDS011;70716;50.074;14.496;2023-08-24T01:44:20;7.13;;;4.25;;
81242;SDS011;70716;50.074;14.496;2023-08-24T01:46:48;6.28;;;3.88;;
81242;SDS011;70716;50.074;14.496;2023-08-24T01:49:17;7.35;;;3.90;;
81242;SDS011;70716;50.074;14.496;2023-08-24T01:51:43;6.32;;;3.80;;
81242;SDS011;70716;50.074;14.496;2023-08-24T01:54:10;6.55;;;3.72;;
81242;SDS011;70716;50.074;14.496;2023-08-24T01:56:37;8.30;;;4.30;;
81242;SDS011;70716;50.074;14.496;2023-08-24T01:59:04;7.28;;;4.00;;
81242;SDS011;70716;50.074;14.496;2023-08-24T02:01:29;7.55;;;3.83;;
81242;SDS011;70716;50.074;14.496;2023-08-24T02:03:54;6.57;;;3.78;;
81242;SDS011;70716;50.074;14.496;2023-08-24T02:06:20;6.90;;;4.03;;
81242;SDS011;70716;50.074;14.496;2023-08-24T02:08:46;7.20;;;4.57;;
81242;SDS011;70716;50.074;14.496;2023-08-24T02:11:14;6.43;;;3.78;;
81242;SDS011;70716;50.074;14.496;2023-08-24T02:13:40;6.45;;;3.83;;
81242;SDS011;70716;50.074;14.496;2023-08-24T02:16:06;6.90;;;3.88;;
81242;SDS011;70716;50.074;14.496;2023-08-24T02:18:37;7.00;;;4.32;;
81242;SDS011;70716;50.074;14.496;2023-08-24T02:21:07;6.35;;;3.78;;
81242;SDS011;70716;50.074;14.496;2023-08-24T02:23:33;6.22;;;3.83;;
81242;SDS011;70716;50.074;14.496;2023-08-24T02:25:59;8.25;;;4.38;;
81242;SDS011;70716;50.074;14.496;2023-08-24T02:28:24;5.95;;;3.63;;
81242;SDS011;70716;50.074;14.496;2023-08-24T02:30:52;7.03;;;4.00;;
81242;SDS011;70716;50.074;14.496;2023-08-24T02:33:19;7.82;;;4.57;;
81242;SDS011;70716;50.074;14.496;2023-08-24T02:35:46;6.43;;;4.10;;
81242;SDS011;70716;50.074;14.496;2023-08-24T02:38:12;7.22;;;4.10;;
81242;SDS011;70716;50.074;14.496;2023-08-24T02:40:38;7.55;;;4.38;;
81242;SDS011;70716;50.074;14.496;2023-08-24T02:43:03;7.30;;;4.10;;
81242;SDS011;70716;50.074;14.496;2023-08-24T02:45:28;6.88;;;4.18;;
81242;SDS011;70716;50.074;14.496;2023-08-24T02:47:54;6.78;;;3.80;;
81242;SDS011;70716;50.074;14.496;2023-08-24T02:50:19;6.65;;;3.80;;
81242;SDS011;70716;50.074;14.496;2023-08-24T02:52:45;6.90;;;4.57;;
81242;SDS011;70716;50.074;14.496;2023-08-24T02:55:10;7.63;;;4.20;;
81242;SDS011;70716;50.074;14.496;2023-08-24T02:57:38;7.25;;;4.05;;
81242;SDS011;70716;50.074;14.496;2023-08-24T03:00:04;6.38;;;3.80;;
81242;SDS011;70716;50.074;14.496;2023-08-24T03:02:32;6.28;;;3.88;;
81242;SDS011;70716;50.074;14.496;2023-08-24T03:04:57;6.50;;;4.35;;
81242;SDS011;70716;50.074;14.496;2023-08-24T03:07:23;6.65;;;4.40;;
81242;SDS011;70716;50.074;14.496;2023-08-24T03:09:49;6.07;;;4.13;;
81242;SDS011;70716;50.074;14.496;2023-08-24T03:12:16;7.80;;;4.35;;
81242;SDS011;70716;50.074;14.496;2023-08-24T03:14:41;7.15;;;4.03;;
81242;SDS011;70716;50.074;14.496;2023-08-24T03:17:06;6.60;;;3.80;;
81242;SDS011;70716;50.074;14.496;2023-08-24T03:19:32;7.35;;;4.80;;
81242;SDS011;70716;50.074;14.496;2023-08-24T03:21:57;7.13;;;4.30;;
81242;SDS011;70716;50.074;14.496;2023-08-24T03:24:23;6.45;;;3.88;;
81242;SDS011;70716;50.074;14.496;2023-08-24T03:26:48;6.68;;;3.80;;
81242;SDS011;70716;50.074;14.496;2023-08-24T03:29:14;8.35;;;4.18;;
81242;SDS011;70716;50.074;14.496;2023-08-24T03:31:39;8.35;;;4.60;;
81242;SDS011;70716;50.074;14.496;2023-08-24T03:34:04;7.47;;;4.28;;
81242;SDS011;70716;50.074;14.496;2023-08-24T03:36:30;7.32;;;4.30;;
81242;SDS011;70716;50.074;14.496;2023-08-24T03:38:56;6.97;;;4.55;;
81242;SDS011;70716;50.074;14.496;2023-08-24T03:41:22;8.10;;;4.13;;
81242;SDS011;70716;50.074;14.496;2023-08-24T03:43:48;6.68;;;4.13;;
81242;SDS011;70716;50.074;14.496;2023-08-24T03:46:13;7.05;;;4.25;;
81242;SDS011;70716;50.074;14.496;2023-08-24T03:48:38;6.63;;;4.10;;
81242;SDS011;70716;50.074;14.496;2023-08-24T03:51:04;7.85;;;3.88;;
81242;SDS011;70716;50.074;14.496;2023-08-24T03:53:30;7.95;;;3.88;;
81242;SDS011;70716;50.074;14.496;2023-08-24T03:55:55;8.35;;;4.10;;
81242;SDS011;70716;50.074;14.496;2023-08-24T03:58:20;7.38;;;4.45;;
81242;SDS011;70716;50.074;14.496;2023-08-24T04:00:46;7.20;;;4.20;;
81242;SDS011;70716;50.074;14.496;2023-08-24T04:03:12;7.10;;;4.20;;
81242;SDS011;70716;50.074;14.496;2023-08-24T04:05:37;6.63;;;3.88;;
81242;SDS011;70716;50.074;14.496;2023-08-24T04:08:03;6.82;;;3.88;;
81242;SDS011;70716;50.074;14.496;2023-08-24T04:10:29;7.18;;;3.53;;
81242;SDS011;70716;50.074;14.496;2023-08-24T04:12:55;7.03;;;4.13;;
81242;SDS011;70716;50.074;14.496;2023-08-24T04:15:21;7.45;;;4.50;;
81242;SDS011;70716;50.074;14.496;2023-08-24T04:20:13;6.45;;;4.18;;
81242;SDS011;70716;50.074;14.496;2023-08-24T04:22:39;7.72;;;4.32;;
81242;SDS011;70716;50.074;14.496;2023-08-24T04:25:04;7.35;;;4.40;;
81242;SDS011;70716;50.074;14.496;2023-08-24T04:27:31;6.78;;;3.80;;
81242;SDS011;70716;50.074;14.496;2023-08-24T04:29:56;8.10;;;4.55;;
81242;SDS011;70716;50.074;14.496;2023-08-24T04:32:22;9.13;;;4.50;;
81242;SDS011;70716;50.074;14.496;2023-08-24T04:34:48;6.35;;;4.03;;
81242;SDS011;70716;50.074;14.496;2023-08-24T04:37:13;8.75;;;5.00;;
81242;SDS011;70716;50.074;14.496;2023-08-24T04:39:39;7.43;;;4.40;;
81242;SDS011;70716;50.074;14.496;2023-08-24T04:42:04;7.72;;;4.60;;
81242;SDS011;70716;50.074;14.496;2023-08-24T04:44:33;7.07;;;4.05;;
81242;SDS011;70716;50.074;14.496;2023-08-24T04:46:59;7.63;;;4.57;;
81242;SDS011;70716;50.074;14.496;2023-08-24T04:49:25;7.82;;;4.75;;
81242;SDS011;70716;50.074;14.496;2023-08-24T04:51:50;9.07;;;4.72;;
81242;SDS011;70716;50.074;14.496;2023-08-24T04:54:15;8.30;;;4.45;;
81242;SDS011;70716;50.074;14.496;2023-08-24T04:56:41;9.60;;;5.10;;
81242;SDS011;70716;50.074;14.496;2023-08-24T04:59:06;8.73;;;4.85;;
81242;SDS011;70716;50.074;14.496;2023-08-24T05:01:35;7.07;;;4.72;;
81242;SDS011;70716;50.074;14.496;2023-08-24T05:04:01;10.85;;;5.18;;
81242;SDS011;70716;50.074;14.496;2023-08-24T05:06:27;10.13;;;5.45;;
81242;SDS011;70716;50.074;14.496;2023-08-24T05:08:52;8.90;;;5.40;;
81242;SDS011;70716;50.074;14.496;2023-08-24T05:11:19;7.60;;;4.78;;
81242;SDS011;70716;50.074;14.496;2023-08-24T05:13:47;8.30;;;5.03;;
81242;SDS011;70716;50.074;14.496;2023-08-24T05:16:12;8.35;;;4.85;;
81242;SDS011;70716;50.074;14.496;2023-08-24T05:18:38;9.95;;;4.97;;
81242;SDS011;70716;50.074;14.496;2023-08-24T05:21:04;8.23;;;4.43;;
81242;SDS011;70716;50.074;14.496;2023-08-24T05:23:31;6.78;;;4.25;;
81242;SDS011;70716;50.074;14.496;2023-08-24T05:25:58;9.18;;;4.78;;
81242;SDS011;70716;50.074;14.496;2023-08-24T05:28:32;10.45;;;4.85;;
81242;SDS011;70716;50.074;14.496;2023-08-24T05:30:58;8.40;;;5.10;;
81242;SDS011;70716;50.074;14.496;2023-08-24T05:33:25;10.98;;;5.13;;
81242;SDS011;70716;50.074;14.496;2023-08-24T05:35:51;9.20;;;5.20;;
81242;SDS011;70716;50.074;14.496;2023-08-24T05:38:17;7.13;;;4.57;;
81242;SDS011;70716;50.074;14.496;2023-08-24T05:40:44;10.23;;;5.03;;
81242;SDS011;70716;50.074;14.496;2023-08-24T05:43:12;9.48;;;4.68;;
81242;SDS011;70716;50.074;14.496;2023-08-24T05:45:38;9.70;;;5.80;;
81242;SDS011;70716;50.074;14.496;2023-08-24T05:48:05;8.27;;;4.78;;
81242;SDS011;70716;50.074;14.496;2023-08-24T05:50:31;13.70;;;5.03;;
81242;SDS011;70716;50.074;14.496;2023-08-24T05:52:57;9.40;;;5.00;;
81242;SDS011;70716;50.074;14.496;2023-08-24T05:55:22;9.80;;;5.25;;
81242;SDS011;70716;50.074;14.496;2023-08-24T05:57:47;10.60;;;5.05;;
81242;SDS011;70716;50.074;14.496;2023-08-24T06:00:13;9.13;;;5.10;;
81242;SDS011;70716;50.074;14.496;2023-08-24T06:02:39;10.40;;;5.10;;
81242;SDS011;70716;50.074;14.496;2023-08-24T06:05:06;7.85;;;5.00;;
81242;SDS011;70716;50.074;14.496;2023-08-24T06:07:32;8.10;;;4.75;;
81242;SDS011;70716;50.074;14.496;2023-08-24T06:09:58;8.40;;;4.90;;
81242;SDS011;70716;50.074;14.496;2023-08-24T06:12:24;8.88;;;5.30;;
81242;SDS011;70716;50.074;14.496;2023-08-24T06:14:49;7.90;;;4.70;;
81242;SDS011;70716;50.074;14.496;2023-08-24T06:17:15;9.68;;;5.28;;
81242;SDS011;70716;50.074;14.496;2023-08-24T06:19:40;7.82;;;4.63;;
81242;SDS011;70716;50.074;14.496;2023-08-24T06:22:06;10.40;;;5.30;;
81242;SDS011;70716;50.074;14.496;2023-08-24T06:24:32;9.23;;;5.88;;
81242;SDS011;70716;50.074;14.496;2023-08-24T06:26:57;10.93;;;5.18;;
81242;SDS011;70716;50.074;14.496;2023-08-24T06:29:22;7.47;;;4.68;;
81242;SDS011;70716;50.074;14.496;2023-08-24T06:31:48;9.90;;;6.38;;
81242;SDS011;70716;50.074;14.496;2023-08-24T06:34:13;8.05;;;5.15;;
81242;SDS011;70716;50.074;14.496;2023-08-24T06:36:39;8.45;;;6.03;;
81242;SDS011;70716;50.074;14.496;2023-08-24T06:39:04;8.23;;;5.22;;
81242;SDS011;70716;50.074;14.496;2023-08-24T06:41:33;8.05;;;4.80;;
81242;SDS011;70716;50.074;14.496;2023-08-24T06:44:00;9.35;;;5.07;;
81242;SDS011;70716;50.074;14.496;2023-08-24T06:46:26;7.88;;;4.43;;
81242;SDS011;70716;50.074;14.496;2023-08-24T06:48:51;9.15;;;5.28;;
81242;SDS011;70716;50.074;14.496;2023-08-24T06:51:20;9.13;;;5.50;;
81242;SDS011;70716;50.074;14.496;2023-08-24T06:53:45;8.38;;;5.25;;
81242;SDS011;70716;50.074;14.496;2023-08-24T06:56:13;6.88;;;4.32;;
81242;SDS011;70716;50.074;14.496;2023-08-24T06:58:40;7.80;;;4.78;;
81242;SDS011;70716;50.074;14.496;2023-08-24T07:01:06;9.10;;;4.75;;
81242;SDS011;70716;50.074;14.496;2023-08-24T07:03:33;7.68;;;4.50;;
81242;SDS011;70716;50.074;14.496;2023-08-24T07:05:59;7.32;;;4.43;;
81242;SDS011;70716;50.074;14.496;2023-08-24T07:08:24;9.25;;;4.72;;
81242;SDS011;70716;50.074;14.496;2023-08-24T07:10:53;8.65;;;4.65;;
81242;SDS011;70716;50.074;14.496;2023-08-24T07:13:18;8.50;;;4.60;;
81242;SDS011;70716;50.074;14.496;2023-08-24T07:15:43;7.70;;;4.90;;
81242;SDS011;70716;50.074;14.496;2023-08-24T07:18:10;7.13;;;4.57;;
81242;SDS011;70716;50.074;14.496;2023-08-24T07:20:38;8.65;;;3.70;;
81242;SDS011;70716;50.074;14.496;2023-08-24T07:23:03;9.60;;;4.50;;
81242;SDS011;70716;50.074;14.496;2023-08-24T07:25:29;6.30;;;3.80;;
81242;SDS011;70716;50.074;14.496;2023-08-24T07:27:55;6.78;;;4.45;;
81242;SDS011;70716;50.074;14.496;2023-08-24T07:30:27;6.40;;;3.85;;
81242;SDS011;70716;50.074;14.496;2023-08-24T07:32:53;7.18;;;4.15;;
81242;SDS011;70716;50.074;14.496;2023-08-24T07:35:22;7.10;;;4.28;;
81242;SDS011;70716;50.074;14.496;2023-08-24T07:37:50;7.55;;;4.30;;
81242;SDS011;70716;50.074;14.496;2023-08-24T07:40:17;7.47;;;3.90;;
81242;SDS011;70716;50.074;14.496;2023-08-24T07:42:45;6.60;;;4.38;;
81242;SDS011;70716;50.074;14.496;2023-08-24T07:45:13;6.82;;;4.05;;
81242;SDS011;70716;50.074;14.496;2023-08-24T07:47:39;6.68;;;3.63;;
81242;SDS011;70716;50.074;14.496;2023-08-24T07:50:04;6.18;;;3.90;;
81242;SDS011;70716;50.074;14.496;2023-08-24T07:52:31;5.78;;;3.78;;
81242;SDS011;70716;50.074;14.496;2023-08-24T07:54:57;6.78;;;3.72;;
81242;SDS011;70716;50.074;14.496;2023-08-24T07:57:27;6.35;;;3.90;;
81242;SDS011;70716;50.074;14.496;2023-08-24T07:59:52;7.35;;;4.13;;
81242;SDS011;70716;50.074;14.496;2023-08-24T08:02:18;9.60;;;4.30;;
81242;SDS011;70716;50.074;14.496;2023-08-24T08:04:43;6.30;;;3.40;;
81242;SDS011;70716;50.074;14.496;2023-08-24T08:07:09;7.43;;;4.60;;
81242;SDS011;70716;50.074;14.496;2023-08-24T08:09:35;9.43;;;4.18;;
81242;SDS011;70716;50.074;14.496;2023-08-24T08:12:01;8.23;;;4.22;;
81242;SDS011;70716;50.074;14.496;2023-08-24T08:14:28;7.63;;;3.95;;
81242;SDS011;70716;50.074;14.496;2023-08-24T08:16:54;7.03;;;3.58;;
81242;SDS011;70716;50.074;14.496;2023-08-24T08:19:19;7.07;;;3.80;;
81242;SDS011;70716;50.074;14.496;2023-08-24T08:21:46;6.60;;;4.78;;
81242;SDS011;70716;50.074;14.496;2023-08-24T08:24:12;7.72;;;4.05;;
81242;SDS011;70716;50.074;14.496;2023-08-24T08:26:37;8.10;;;4.28;;
81242;SDS011;70716;50.074;14.496;2023-08-24T08:29:03;11.43;;;4.63;;
81242;SDS011;70716;50.074;14.496;2023-08-24T08:31:28;5.97;;;3.60;;
81242;SDS011;70716;50.074;14.496;2023-08-24T08:33:54;6.78;;;4.53;;
81242;SDS011;70716;50.074;14.496;2023-08-24T08:36:19;7.25;;;3.60;;
81242;SDS011;70716;50.074;14.496;2023-08-24T08:38:47;7.40;;;3.38;;
81242;SDS011;70716;50.074;14.496;2023-08-24T08:41:14;5.88;;;3.40;;
81242;SDS011;70716;50.074;14.496;2023-08-24T08:43:42;5.55;;;3.10;;
81242;SDS011;70716;50.074;14.496;2023-08-24T08:46:07;6.10;;;3.10;;
81242;SDS011;70716;50.074;14.496;2023-08-24T08:48:33;7.57;;;2.90;;
81242;SDS011;70716;50.074;14.496;2023-08-24T08:51:00;5.22;;;2.55;;
81242;SDS011;70716;50.074;14.496;2023-08-24T08:53:27;5.30;;;2.80;;
81242;SDS011;70716;50.074;14.496;2023-08-24T08:55:54;5.53;;;2.70;;
81242;SDS011;70716;50.074;14.496;2023-08-24T08:58:20;6.07;;;2.88;;
81242;SDS011;70716;50.074;14.496;2023-08-24T09:00:46;4.90;;;2.72;;
81242;SDS011;70716;50.074;14.496;2023-08-24T09:03:12;5.40;;;2.85;;
81242;SDS011;70716;50.074;14.496;2023-08-24T09:05:42;5.90;;;2.67;;
81242;SDS011;70716;50.074;14.496;2023-08-24T09:08:08;5.32;;;2.67;;
81242;SDS011;70716;50.074;14.496;2023-08-24T09:10:34;6.38;;;2.90;;
81242;SDS011;70716;50.074;14.496;2023-08-24T09:12:59;6.15;;;2.95;;
81242;SDS011;70716;50.074;14.496;2023-08-24T09:15:25;6.18;;;2.92;;
81242;SDS011;70716;50.074;14.496;2023-08-24T09:17:53;5.10;;;2.85;;
81242;SDS011;70716;50.074;14.496;2023-08-24T09:20:21;6.03;;;3.05;;
81242;SDS011;70716;50.074;14.496;2023-08-24T09:22:46;5.07;;;3.00;;
81242;SDS011;70716;50.074;14.496;2023-08-24T09:25:12;5.40;;;2.80;;
81242;SDS011;70716;50.074;14.496;2023-08-24T09:27:38;4.28;;;2.60;;
81242;SDS011;70716;50.074;14.496;2023-08-24T09:30:04;5.93;;;2.40;;
81242;SDS011;70716;50.074;14.496;2023-08-24T09:35:01;5.78;;;2.45;;
81242;SDS011;70716;50.074;14.496;2023-08-24T09:37:35;5.10;;;2.90;;
81242;SDS011;70716;50.074;14.496;2023-08-24T09:40:04;5.15;;;2.63;;
81242;SDS011;70716;50.074;14.496;2023-08-24T09:42:39;7.13;;;3.25;;
81242;SDS011;70716;50.074;14.496;2023-08-24T09:45:07;5.95;;;3.17;;
81242;SDS011;70716;50.074;14.496;2023-08-24T09:47:35;6.13;;;2.92;;
81242;SDS011;70716;50.074;14.496;2023-08-24T09:50:01;4.20;;;2.85;;
81242;SDS011;70716;50.074;14.496;2023-08-24T09:52:28;6.13;;;2.53;;
81242;SDS011;70716;50.074;14.496;2023-08-24T09:55:03;4.93;;;2.83;;
81242;SDS011;70716;50.074;14.496;2023-08-24T09:57:39;5.38;;;2.80;;
81242;SDS011;70716;50.074;14.496;2023-08-24T10:00:08;7.25;;;3.10;;
81242;SDS011;70716;50.074;14.496;2023-08-24T10:02:58;5.00;;;3.10;;
81242;SDS011;70716;50.074;14.496;2023-08-24T10:05:26;6.22;;;3.15;;
81242;SDS011;70716;50.074;14.496;2023-08-24T10:07:53;5.47;;;3.10;;
81242;SDS011;70716;50.074;14.496;2023-08-24T10:10:21;6.03;;;3.60;;
81242;SDS011;70716;50.074;14.496;2023-08-24T10:12:53;7.45;;;3.05;;
81242;SDS011;70716;50.074;14.496;2023-08-24T10:15:24;4.90;;;2.92;;
81242;SDS011;70716;50.074;14.496;2023-08-24T10:17:49;6.53;;;3.40;;
81242;SDS011;70716;50.074;14.496;2023-08-24T10:20:18;5.80;;;3.45;;
81242;SDS011;70716;50.074;14.496;2023-08-24T10:22:45;6.88;;;3.55;;
81242;SDS011;70716;50.074;14.496;2023-08-24T10:25:12;6.22;;;3.55;;
81242;SDS011;70716;50.074;14.496;2023-08-24T10:27:39;6.20;;;3.38;;
81242;SDS011;70716;50.074;14.496;2023-08-24T10:30:10;5.90;;;3.40;;
81242;SDS011;70716;50.074;14.496;2023-08-24T10:32:37;5.70;;;3.10;;
81242;SDS011;70716;50.074;14.496;2023-08-24T10:35:04;5.80;;;3.55;;
81242;SDS011;70716;50.074;14.496;2023-08-24T10:37:30;5.68;;;3.33;;
81242;SDS011;70716;50.074;14.496;2023-08-24T10:40:00;5.65;;;3.38;;
81242;SDS011;70716;50.074;14.496;2023-08-24T10:42:26;6.57;;;3.55;;
81242;SDS011;70716;50.074;14.496;2023-08-24T10:44:51;6.18;;;3.33;;
81242;SDS011;70716;50.074;14.496;2023-08-24T10:47:18;5.72;;;3.45;;
81242;SDS011;70716;50.074;14.496;2023-08-24T10:55:25;6.65;;;3.50;;
81242;SDS011;70716;50.074;14.496;2023-08-24T10:57:55;6.50;;;3.25;;
81242;SDS011;70716;50.074;14.496;2023-08-24T11:00:28;7.55;;;3.30;;
81242;SDS011;70716;50.074;14.496;2023-08-24T11:02:55;6.35;;;3.17;;
81242;SDS011;70716;50.074;14.496;2023-08-24T11:05:28;7.88;;;3.58;;
81242;SDS011;70716;50.074;14.496;2023-08-24T11:07:58;5.93;;;3.65;;
81242;SDS011;70716;50.074;14.496;2023-08-24T11:10:26;6.50;;;3.95;;
81242;SDS011;70716;50.074;14.496;2023-08-24T11:13:15;5.85;;;3.30;;
81242;SDS011;70716;50.074;14.496;2023-08-24T11:18:20;5.97;;;3.08;;
81242;SDS011;70716;50.074;14.496;2023-08-24T11:20:48;5.78;;;3.47;;
81242;SDS011;70716;50.074;14.496;2023-08-24T11:23:17;6.57;;;3.53;;
81242;SDS011;70716;50.074;14.496;2023-08-24T11:25:44;5.78;;;3.30;;
81242;SDS011;70716;50.074;14.496;2023-08-24T11:28:09;6.22;;;2.92;;
81242;SDS011;70716;50.074;14.496;2023-08-24T11:30:35;6.22;;;2.90;;
81242;SDS011;70716;50.074;14.496;2023-08-24T11:33:01;5.70;;;3.00;;
81242;SDS011;70716;50.074;14.496;2023-08-24T11:35:28;5.93;;;3.08;;
81242;SDS011;70716;50.074;14.496;2023-08-24T11:37:54;5.63;;;3.20;;
81242;SDS011;70716;50.074;14.496;2023-08-24T11:40:21;5.40;;;3.40;;
81242;SDS011;70716;50.074;14.496;2023-08-24T11:42:56;4.55;;;2.90;;
81242;SDS011;70716;50.074;14.496;2023-08-24T11:45:22;6.50;;;3.40;;
81242;SDS011;70716;50.074;14.496;2023-08-24T11:47:48;5.30;;;3.05;;
81242;SDS011;70716;50.074;14.496;2023-08-24T11:50:15;6.20;;;3.22;;
81242;SDS011;70716;50.074;14.496;2023-08-24T11:52:44;5.25;;;2.83;;
81242;SDS011;70716;50.074;14.496;2023-08-24T11:55:10;5.68;;;3.40;;
81242;SDS011;70716;50.074;14.496;2023-08-24T11:57:36;5.22;;;2.90;;
81242;SDS011;70716;50.074;14.496;2023-08-24T12:00:05;5.97;;;3.40;;
81242;SDS011;70716;50.074;14.496;2023-08-24T12:02:32;7.28;;;3.28;;
81242;SDS011;70716;50.074;14.496;2023-08-24T12:04:58;7.32;;;3.40;;
81242;SDS011;70716;50.074;14.496;2023-08-24T12:07:24;6.13;;;3.45;;
81242;SDS011;70716;50.074;14.496;2023-08-24T12:09:53;6.88;;;3.15;;
81242;SDS011;70716;50.074;14.496;2023-08-24T12:12:19;6.95;;;3.40;;
81242;SDS011;70716;50.074;14.496;2023-08-24T12:14:49;5.50;;;3.10;;
81242;SDS011;70716;50.074;14.496;2023-08-24T12:17:15;7.43;;;3.53;;
81242;SDS011;70716;50.074;14.496;2023-08-24T12:19:42;6.57;;;3.47;;
81242;SDS011;70716;50.074;14.496;2023-08-24T12:22:19;6.07;;;3.13;;
81242;SDS011;70716;50.074;14.496;2023-08-24T12:24:47;5.70;;;2.97;;
81242;SDS011;70716;50.074;14.496;2023-08-24T12:29:45;8.57;;;3.20;;
81242;SDS011;70716;50.074;14.496;2023-08-24T12:32:11;4.45;;;2.67;;
81242;SDS011;70716;50.074;14.496;2023-08-24T12:34:37;4.78;;;2.70;;
81242;SDS011;70716;50.074;14.496;2023-08-24T12:37:05;6.13;;;3.25;;
81242;SDS011;70716;50.074;14.496;2023-08-24T12:39:34;6.00;;;3.17;;
81242;SDS011;70716;50.074;14.496;2023-08-24T12:42:06;6.05;;;3.08;;
81242;SDS011;70716;50.074;14.496;2023-08-24T12:44:32;5.47;;;2.90;;
81242;SDS011;70716;50.074;14.496;2023-08-24T12:46:58;5.30;;;3.00;;
81242;SDS011;70716;50.074;14.496;2023-08-24T12:49:24;5.10;;;2.83;;
81242;SDS011;70716;50.074;14.496;2023-08-24T12:51:49;4.90;;;3.22;;
81242;SDS011;70716;50.074;14.496;2023-08-24T12:54:19;5.22;;;3.10;;
81242;SDS011;70716;50.074;14.496;2023-08-24T12:56:44;4.82;;;2.78;;
81242;SDS011;70716;50.074;14.496;2023-08-24T12:59:10;5.40;;;2.90;;
81242;SDS011;70716;50.074;14.496;2023-08-24T13:01:36;4.50;;;2.50;;
81242;SDS011;70716;50.074;14.496;2023-08-24T13:04:01;6.70;;;3.08;;
81242;SDS011;70716;50.074;14.496;2023-08-24T13:06:26;6.30;;;3.33;;
81242;SDS011;70716;50.074;14.496;2023-08-24T13:08:52;5.22;;;3.17;;
81242;SDS011;70716;50.074;14.496;2023-08-24T13:11:18;5.35;;;2.97;;
81242;SDS011;70716;50.074;14.496;2023-08-24T13:13:43;5.03;;;2.72;;
81242;SDS011;70716;50.074;14.496;2023-08-24T13:16:10;4.63;;;2.63;;
81242;SDS011;70716;50.074;14.496;2023-08-24T13:18:35;5.03;;;2.85;;
81242;SDS011;70716;50.074;14.496;2023-08-24T13:21:01;6.28;;;3.25;;
81242;SDS011;70716;50.074;14.496;2023-08-24T13:23:26;4.60;;;2.90;;
81242;SDS011;70716;50.074;14.496;2023-08-24T13:25:52;5.32;;;3.40;;
81242;SDS011;70716;50.074;14.496;2023-08-24T13:28:17;4.93;;;2.75;;
81242;SDS011;70716;50.074;14.496;2023-08-24T13:30:42;5.75;;;3.33;;
81242;SDS011;70716;50.074;14.496;2023-08-24T13:33:08;6.50;;;3.22;;
81242;SDS011;70716;50.074;14.496;2023-08-24T13:35:34;6.28;;;3.30;;
81242;SDS011;70716;50.074;14.496;2023-08-24T13:38:00;5.78;;;2.78;;
81242;SDS011;70716;50.074;14.496;2023-08-24T13:40:25;6.15;;;2.85;;
81242;SDS011;70716;50.074;14.496;2023-08-24T13:42:51;5.97;;;2.90;;
81242;SDS011;70716;50.074;14.496;2023-08-24T13:45:18;5.82;;;3.10;;
81242;SDS011;70716;50.074;14.496;2023-08-24T13:47:44;7.25;;;2.88;;
81242;SDS011;70716;50.074;14.496;2023-08-24T13:50:10;6.40;;;2.78;;
81242;SDS011;70716;50.074;14.496;2023-08-24T13:52:36;4.78;;;2.70;;
81242;SDS011;70716;50.074;14.496;2023-08-24T13:55:01;5.90;;;2.85;;
81242;SDS011;70716;50.074;14.496;2023-08-24T13:57:28;5.50;;;3.08;;
81242;SDS011;70716;50.074;14.496;2023-08-24T14:02:22;4.70;;;2.78;;
81242;SDS011;70716;50.074;14.496;2023-08-24T14:04:48;4.95;;;3.25;;
81242;SDS011;70716;50.074;14.496;2023-08-24T14:07:16;5.78;;;3.28;;
81242;SDS011;70716;50.074;14.496;2023-08-24T14:09:42;5.05;;;3.28;;
81242;SDS011;70716;50.074;14.496;2023-08-24T14:12:07;4.65;;;2.90;;
81242;SDS011;70716;50.074;14.496;2023-08-24T14:14:32;5.07;;;2.88;;
81242;SDS011;70716;50.074;14.496;2023-08-24T14:16:58;4.95;;;2.88;;
81242;SDS011;70716;50.074;14.496;2023-08-24T14:19:23;5.75;;;2.53;;
81242;SDS011;70716;50.074;14.496;2023-08-24T14:21:49;4.95;;;3.13;;
81242;SDS011;70716;50.074;14.496;2023-08-24T14:24:15;6.07;;;2.83;;
81242;SDS011;70716;50.074;14.496;2023-08-24T14:26:41;7.45;;;3.00;;
81242;SDS011;70716;50.074;14.496;2023-08-24T14:29:10;5.93;;;3.30;;
81242;SDS011;70716;50.074;14.496;2023-08-24T14:31:36;6.55;;;3.38;;
81242;SDS011;70716;50.074;14.496;2023-08-24T14:34:01;5.13;;;2.95;;
81242;SDS011;70716;50.074;14.496;2023-08-24T14:36:28;5.22;;;3.03;;
81242;SDS011;70716;50.074;14.496;2023-08-24T14:41:19;6.60;;;2.97;;
81242;SDS011;70716;50.074;14.496;2023-08-24T14:43:44;4.47;;;2.70;;
81242;SDS011;70716;50.074;14.496;2023-08-24T14:46:12;5.00;;;2.90;;
81242;SDS011;70716;50.074;14.496;2023-08-24T14:48:38;5.88;;;2.90;;
81242;SDS011;70716;50.074;14.496;2023-08-24T14:51:04;5.97;;;2.92;;
81242;SDS011;70716;50.074;14.496;2023-08-24T14:53:29;5.63;;;2.85;;